createdAt,value
2019-01-14T00:00:58.216Z,93379.41
2019-01-14T00:03:27.669Z,93375.14
2019-01-14T00:05:57.051Z,93370.97
2019-01-14T00:08:26.707Z,93367.52
2019-01-14T00:10:56.187Z,93365.17
2019-01-14T00:13:25.658Z,93372.34
2019-01-14T00:15:55.099Z,93365.93
2019-01-14T00:18:24.499Z,93365.48
2019-01-14T00:20:53.864Z,93362.45
2019-01-14T00:23:23.340Z,93366.02
2019-01-14T00:25:52.766Z,93369.77
2019-01-14T00:28:22.118Z,93363.05
2019-01-14T00:30:51.531Z,93363.52
2019-01-14T00:33:20.878Z,93360.73
2019-01-14T00:35:50.279Z,93363.16
2019-01-14T00:38:19.797Z,93356.01
2019-01-14T00:40:49.178Z,93356.57
2019-01-14T00:43:18.692Z,93356.41
2019-01-14T00:45:48.063Z,93360.78
2019-01-14T00:48:17.450Z,93364.98
2019-01-14T00:50:46.810Z,93376.72
2019-01-14T00:53:16.223Z,93369.23
2019-01-14T00:55:45.615Z,93367.98
2019-01-14T00:58:14.977Z,93357.45
2019-01-14T01:00:44.380Z,93361.33
2019-01-14T01:03:13.863Z,93357.11
2019-01-14T01:05:43.259Z,93362.18
2019-01-14T01:08:12.699Z,93362.62
2019-01-14T01:10:42.086Z,93358.67
2019-01-14T01:13:11.442Z,93351.25
2019-01-14T01:15:40.854Z,93344.44
2019-01-14T01:18:10.189Z,93341.54
2019-01-14T01:20:40.359Z,93342.25
2019-01-14T01:23:09.786Z,93336.93
2019-01-14T01:25:39.184Z,93340.91
2019-01-14T01:28:08.541Z,93330.77
2019-01-14T01:30:37.884Z,93321.44
2019-01-14T01:33:07.246Z,93317.57
2019-01-14T01:35:36.707Z,93316.59
2019-01-14T01:38:06.121Z,93317.72
2019-01-14T01:40:35.517Z,93309.15
2019-01-14T01:43:04.893Z,93303.43
2019-01-14T01:45:34.288Z,93311.22
2019-01-14T01:48:03.719Z,93304.64
2019-01-14T01:50:33.101Z,93310.08
2019-01-14T01:53:02.729Z,93304.08
2019-01-14T01:55:32.216Z,93302.85
2019-01-14T01:58:01.641Z,93304.05
2019-01-14T02:00:31.021Z,93312.73
2019-01-14T02:03:00.387Z,93299.77
2019-01-14T02:05:29.753Z,93295.22
2019-01-14T02:07:59.170Z,93285.39
2019-01-14T02:10:28.569Z,93274.33
2019-01-14T02:12:57.955Z,93269.34
2019-01-14T02:15:27.332Z,93265.61
2019-01-14T02:17:56.770Z,93263.98
2019-01-14T02:20:26.147Z,93263.30
2019-01-14T02:22:56.306Z,93256.36
2019-01-14T02:25:25.739Z,93256.58
2019-01-14T02:27:55.116Z,93252.03
2019-01-14T02:30:25.028Z,93252.25
2019-01-14T02:32:54.357Z,93240.11
2019-01-14T02:35:23.699Z,93224.77
2019-01-14T02:37:53.058Z,93213.67
2019-01-14T02:40:23.096Z,93220.31
2019-01-14T02:42:52.428Z,93215.89
2019-01-14T02:45:21.767Z,93207.34
2019-01-14T02:47:51.151Z,93197.09
2019-01-14T02:50:20.485Z,93193.08
2019-01-14T02:52:50.253Z,93189.46
2019-01-14T02:55:19.621Z,93191.92
2019-01-14T02:57:49.009Z,93189.27
2019-01-14T03:00:27.552Z,93189.89
2019-01-14T03:02:56.938Z,93195.36
2019-01-14T03:05:26.290Z,93206.36
2019-01-14T03:07:55.671Z,93195.02
2019-01-14T03:10:25.078Z,93202.77
2019-01-14T03:12:54.420Z,93194.97
2019-01-14T03:15:23.824Z,93203.22
2019-01-14T03:17:53.178Z,93192.73
2019-01-14T03:20:22.554Z,93200.45
2019-01-14T03:22:51.947Z,93182.89
2019-01-14T03:25:21.337Z,93178.28
2019-01-14T03:27:50.718Z,93172.72
2019-01-14T03:30:20.876Z,93178.58
2019-01-14T03:32:50.312Z,93175.70
2019-01-14T03:35:19.721Z,93170.09
2019-01-14T03:37:49.095Z,93171.80
2019-01-14T03:40:19.088Z,93166.14
2019-01-14T03:42:48.460Z,93168.59
2019-01-14T03:45:18.016Z,93172.06
2019-01-14T03:47:47.441Z,93181.13
2019-01-14T03:50:24.086Z,93195.41
2019-01-14T03:52:53.430Z,93207.17
2019-01-14T03:55:22.796Z,93203.80
2019-01-14T03:57:53.910Z,93195.86
2019-01-14T04:00:23.228Z,93199.50
2019-01-14T04:02:52.594Z,93204.22
2019-01-14T04:05:21.976Z,93193.02
2019-01-14T04:07:51.366Z,93202.73
2019-01-14T04:10:20.783Z,93199.97
2019-01-14T04:12:50.148Z,93204.20
2019-01-14T04:15:20.450Z,93196.67
2019-01-14T04:17:49.902Z,93172.16
2019-01-14T04:20:20.132Z,93164.05
2019-01-14T04:22:49.852Z,93170.66
2019-01-14T04:25:19.355Z,93165.66
2019-01-14T04:27:48.723Z,93160.22
2019-01-14T04:30:21.805Z,93156.91
2019-01-14T04:32:51.653Z,93162.75
2019-01-14T04:35:22.052Z,93148.86
2019-01-14T04:37:51.578Z,93149.27
2019-01-14T04:40:20.941Z,93143.41
2019-01-14T04:42:50.291Z,93152.89
2019-01-14T04:45:19.685Z,93135.45
2019-01-14T04:47:49.049Z,93134.73
2019-01-14T04:50:21.569Z,93153.15
2019-01-14T04:52:51.045Z,93156.48
2019-01-14T04:55:20.639Z,93159.62
2019-01-14T04:57:50.097Z,93156.59
2019-01-14T05:00:25.031Z,93151.73
2019-01-14T05:02:54.512Z,93143.61
2019-01-14T05:05:24.295Z,93135.17
2019-01-14T05:07:53.682Z,93142.85
2019-01-14T05:10:23.639Z,93130.17
2019-01-14T05:12:53.039Z,93120.40
2019-01-14T05:15:22.364Z,93132.33
2019-01-14T05:17:51.764Z,93127.55
2019-01-14T05:20:23.456Z,93128.73
2019-01-14T05:22:53.079Z,93137.00
2019-01-14T05:25:23.138Z,93139.73
2019-01-14T05:27:52.518Z,93147.78
2019-01-14T05:30:22.132Z,93144.20
2019-01-14T05:32:51.520Z,93156.81
2019-01-14T05:35:21.069Z,93147.06
2019-01-14T05:37:50.482Z,93149.68
2019-01-14T05:40:24.832Z,93152.44
2019-01-14T05:42:54.277Z,93158.80
2019-01-14T05:45:23.743Z,93160.08
2019-01-14T05:47:53.251Z,93162.70
2019-01-14T05:50:22.659Z,93163.84
2019-01-14T05:52:52.219Z,93165.02
2019-01-14T05:55:21.678Z,93163.28
2019-01-14T05:57:51.091Z,93166.73
2019-01-14T06:00:37.953Z,93171.25
2019-01-14T06:03:07.351Z,93170.61
2019-01-14T06:05:36.746Z,93158.24
2019-01-14T06:08:06.106Z,93153.72
2019-01-14T06:10:35.552Z,93155.34
2019-01-14T06:13:04.945Z,93153.20
2019-01-14T06:15:34.404Z,93156.20
2019-01-14T06:18:04.145Z,93162.34
2019-01-14T06:20:33.952Z,93164.45
2019-01-14T06:23:03.360Z,93173.58
2019-01-14T06:25:32.872Z,93159.73
2019-01-14T06:28:02.306Z,93155.38
2019-01-14T06:30:32.045Z,93138.51
2019-01-14T06:33:01.447Z,93128.19
2019-01-14T06:35:31.029Z,93116.47
2019-01-14T06:38:00.426Z,93115.05
2019-01-14T06:40:29.823Z,93114.42
2019-01-14T06:42:59.238Z,93105.56
2019-01-14T06:45:28.610Z,93101.74
2019-01-14T06:47:57.960Z,93112.73
2019-01-14T06:50:27.303Z,93129.49
2019-01-14T06:52:56.745Z,93126.52
2019-01-14T06:55:26.190Z,93136.38
2019-01-14T06:57:55.579Z,93144.36
2019-01-14T07:00:27.257Z,93150.69
2019-01-14T07:02:56.891Z,93155.80
2019-01-14T07:05:26.299Z,93157.49
2019-01-14T07:07:59.827Z,93151.32
2019-01-14T07:10:29.197Z,93153.23
2019-01-14T07:12:58.631Z,93159.41
2019-01-14T07:15:27.993Z,93154.41
2019-01-14T07:17:57.370Z,93159.66
2019-01-14T07:20:26.541Z,93153.50
2019-01-14T07:22:55.939Z,93147.52
2019-01-14T07:25:25.320Z,93141.48
2019-01-14T07:27:54.715Z,93136.47
2019-01-14T07:30:24.286Z,93141.05
2019-01-14T07:32:53.685Z,93129.11
2019-01-14T07:35:23.150Z,93128.22
2019-01-14T07:37:52.667Z,93147.50
2019-01-14T07:40:22.069Z,93135.50
2019-01-14T07:42:51.433Z,93155.58
2019-01-14T07:45:21.009Z,93138.88
2019-01-14T07:47:50.358Z,93138.80
2019-01-14T07:50:20.136Z,93133.02
2019-01-14T07:52:49.818Z,93134.41
2019-01-14T07:55:19.209Z,93127.84
2019-01-14T07:57:48.587Z,93138.77
2019-01-14T08:00:23.245Z,93137.52
2019-01-14T08:02:52.795Z,93135.02
2019-01-14T08:05:22.195Z,93152.40
2019-01-14T08:07:51.792Z,93159.67
2019-01-14T08:10:21.201Z,93159.11
2019-01-14T08:12:50.610Z,93165.92
2019-01-14T08:15:21.673Z,93152.45
2019-01-14T08:17:51.058Z,93163.08
2019-01-14T08:20:20.553Z,93160.11
2019-01-14T08:22:49.993Z,93159.69
2019-01-14T08:25:19.392Z,93156.66
2019-01-14T08:27:48.792Z,93163.53
2019-01-14T08:30:22.850Z,93164.03
2019-01-14T08:32:52.200Z,93164.30
2019-01-14T08:35:21.794Z,93156.67
2019-01-14T08:37:51.164Z,93161.42
2019-01-14T08:40:20.661Z,93173.13
2019-01-14T08:42:50.012Z,93156.48
2019-01-14T08:45:19.505Z,93163.02
2019-01-14T08:47:48.899Z,93158.87
2019-01-14T08:50:22.098Z,93169.44
2019-01-14T08:52:52.120Z,93166.98
2019-01-14T08:55:21.596Z,93171.61
2019-01-14T08:57:54.647Z,93162.59
2019-01-14T09:00:23.514Z,93174.80
2019-01-14T09:02:52.904Z,93170.92
2019-01-14T09:05:22.398Z,93163.17
2019-01-14T09:07:51.809Z,93163.24
2019-01-14T09:10:26.182Z,93168.06
2019-01-14T09:12:55.626Z,93171.22
2019-01-14T09:15:25.018Z,93160.16
2019-01-14T09:17:54.401Z,93161.03
2019-01-14T09:20:25.160Z,93151.78
2019-01-14T09:22:54.668Z,93149.30
2019-01-14T09:25:24.059Z,93151.22
2019-01-14T09:27:53.662Z,93148.37
2019-01-14T09:30:26.883Z,93142.47
2019-01-14T09:32:57.247Z,93137.07
2019-01-14T09:35:26.702Z,93130.81
2019-01-14T09:37:56.160Z,93135.95
2019-01-14T09:40:25.981Z,93142.56
2019-01-14T09:42:55.347Z,93134.37
2019-01-14T09:45:24.704Z,93128.00
2019-01-14T09:47:54.121Z,93126.72
2019-01-14T09:50:23.499Z,93119.66
2019-01-14T09:52:52.877Z,93123.96
2019-01-14T09:55:22.278Z,93116.77
2019-01-14T09:57:51.642Z,93124.78
2019-01-14T10:00:21.190Z,93121.10
2019-01-14T10:02:55.456Z,93118.70
2019-01-14T10:05:21.679Z,93117.72
2019-01-14T10:07:51.166Z,93112.92
2019-01-14T10:10:21.261Z,93110.06
2019-01-14T10:12:50.600Z,93103.34
2019-01-14T10:15:27.957Z,93110.37
2019-01-14T10:18:00.216Z,93107.66
2019-01-14T10:20:29.611Z,93104.45
2019-01-14T10:22:59.390Z,93106.55
2019-01-14T10:25:28.806Z,93094.36
2019-01-14T10:27:58.206Z,93093.73
2019-01-14T10:30:27.595Z,93088.91
2019-01-14T10:32:56.978Z,93093.73
2019-01-14T10:35:26.376Z,93093.25
2019-01-14T10:37:55.819Z,93091.80
2019-01-14T10:40:25.195Z,93084.41
2019-01-14T10:42:54.531Z,93081.53
2019-01-14T10:45:24.581Z,93082.80
2019-01-14T10:47:53.961Z,93076.38
2019-01-14T10:50:23.322Z,93080.42
2019-01-14T10:52:52.683Z,93085.55
2019-01-14T10:55:22.075Z,93077.19
2019-01-14T10:57:51.598Z,93071.27
2019-01-14T11:00:23.376Z,93069.65
2019-01-14T11:02:52.816Z,93068.20
2019-01-14T11:05:25.740Z,93071.42
2019-01-14T11:07:55.233Z,93068.86
2019-01-14T11:10:24.649Z,93063.59
2019-01-14T11:12:54.068Z,93059.28
2019-01-14T11:15:23.804Z,93064.08
2019-01-14T11:17:53.426Z,93067.11
2019-01-14T11:20:25.730Z,93058.29
2019-01-14T11:22:56.235Z,93056.70
2019-01-14T11:25:25.666Z,93052.69
2019-01-14T11:27:55.069Z,93055.27
2019-01-14T11:30:30.280Z,93054.92
2019-01-14T11:32:59.612Z,93047.20
2019-01-14T11:35:29.031Z,93051.07
2019-01-14T11:37:58.431Z,93052.66
2019-01-14T11:40:33.514Z,93053.77
2019-01-14T11:43:02.913Z,93051.13
2019-01-14T11:45:32.235Z,93056.36
2019-01-14T11:48:01.632Z,93053.83
2019-01-14T11:50:30.978Z,93059.20
2019-01-14T11:53:00.357Z,93056.27
2019-01-14T11:55:29.814Z,93044.06
2019-01-14T11:57:59.207Z,93053.28
2019-01-14T12:00:36.275Z,93049.30
2019-01-14T12:03:02.165Z,93051.39
2019-01-14T12:05:31.584Z,93062.87
2019-01-14T12:08:00.982Z,93048.93
2019-01-14T12:10:30.345Z,93051.05
2019-01-14T12:12:59.797Z,93056.18
2019-01-14T12:15:29.475Z,93059.02
2019-01-14T12:17:58.867Z,93057.31
2019-01-14T12:20:28.281Z,93059.67
2019-01-14T12:22:58.029Z,93059.98
2019-01-14T12:25:27.517Z,93057.91
2019-01-14T12:27:56.890Z,93058.05
2019-01-14T12:30:32.609Z,93055.66
2019-01-14T12:33:02.095Z,93059.52
2019-01-14T12:35:31.483Z,93058.52
2019-01-14T12:38:00.953Z,93053.26
2019-01-14T12:40:30.335Z,93061.30
2019-01-14T12:42:59.756Z,93058.28
2019-01-14T12:45:29.517Z,93056.18
2019-01-14T12:47:58.972Z,93056.02
2019-01-14T12:50:28.365Z,93055.34
2019-01-14T12:52:57.707Z,93049.13
2019-01-14T12:55:27.104Z,93052.13
2019-01-14T12:57:56.558Z,93052.16
2019-01-14T13:00:27.574Z,93054.88
2019-01-14T13:02:58.497Z,93051.36
2019-01-14T13:05:30.178Z,93050.43
2019-01-14T13:07:59.735Z,93048.80
2019-01-14T13:10:29.105Z,93058.30
2019-01-14T13:12:58.673Z,93059.86
2019-01-14T13:15:29.477Z,93059.23
2019-01-14T13:18:51.220Z,93059.36
2019-01-14T13:21:20.968Z,93058.75
2019-01-14T13:23:50.508Z,93055.69
2019-01-14T13:26:20.097Z,93011.81
2019-01-14T13:28:49.521Z,93056.97
2019-01-14T13:31:18.921Z,93064.65
2019-01-14T13:33:48.338Z,93061.12
2019-01-14T13:36:17.692Z,93055.50
2019-01-14T13:38:47.077Z,93050.08
2019-01-14T13:41:16.444Z,93054.06
2019-01-14T13:43:45.828Z,93054.70
2019-01-14T13:46:15.202Z,93052.13
2019-01-14T13:48:44.568Z,93055.97
2019-01-14T13:51:13.974Z,93058.05
2019-01-14T13:53:43.370Z,93062.03
2019-01-14T13:56:12.753Z,93064.13
2019-01-14T13:58:42.153Z,93066.26
2019-01-14T14:01:11.624Z,93065.44
2019-01-14T14:03:41.083Z,93059.86
2019-01-14T14:06:10.455Z,93053.31
2019-01-14T14:08:39.831Z,93054.88
2019-01-14T14:11:09.213Z,93058.28
2019-01-14T14:13:38.642Z,93060.49
2019-01-14T14:16:07.967Z,93065.83
2019-01-14T14:18:37.330Z,93064.05
2019-01-14T14:21:07.126Z,93057.80
2019-01-14T14:23:36.515Z,93064.69
2019-01-14T14:26:05.912Z,93071.44
2019-01-14T14:28:35.434Z,93068.72
2019-01-14T14:31:04.797Z,93089.86
2019-01-14T14:33:34.186Z,93078.64
2019-01-14T14:36:03.591Z,93086.99
2019-01-14T14:38:33.154Z,93092.29
2019-01-14T14:41:02.592Z,93107.66
2019-01-14T14:43:31.925Z,93102.36
2019-01-14T14:46:01.315Z,93107.96
2019-01-14T14:48:30.755Z,93106.81
2019-01-14T14:51:00.119Z,93108.91
2019-01-14T14:53:30.052Z,93115.62
2019-01-14T14:55:59.533Z,93121.23
2019-01-14T14:58:28.968Z,93118.34
2019-01-14T15:00:58.385Z,93127.25
2019-01-14T15:03:27.774Z,93130.73
2019-01-14T15:05:57.334Z,93136.49
2019-01-14T15:08:26.759Z,93136.78
2019-01-14T15:10:56.195Z,93137.27
2019-01-14T15:13:25.578Z,93138.24
2019-01-14T15:15:54.978Z,93130.16
2019-01-14T15:18:24.345Z,93125.66
2019-01-14T15:20:53.731Z,93136.73
2019-01-14T15:23:23.124Z,93142.64
2019-01-14T15:25:52.570Z,93136.84
2019-01-14T15:28:21.936Z,93137.28
2019-01-14T15:30:51.302Z,93140.00
2019-01-14T15:33:20.685Z,93136.36
2019-01-14T15:35:50.018Z,93138.98
2019-01-14T15:38:19.406Z,93146.52
2019-01-14T15:40:48.805Z,93144.91
2019-01-14T15:43:18.199Z,93149.13
2019-01-14T15:45:47.692Z,93150.37
2019-01-14T15:48:17.135Z,93154.27
2019-01-14T15:50:46.602Z,93163.23
2019-01-14T15:53:15.987Z,93158.91
2019-01-14T15:55:45.461Z,93161.60
2019-01-14T15:58:14.883Z,93165.17
2019-01-14T16:00:44.291Z,93163.13
2019-01-14T16:03:13.723Z,93174.93
2019-01-14T16:05:43.131Z,93172.34
2019-01-14T16:08:12.551Z,93167.59
2019-01-14T16:10:41.933Z,93169.95
2019-01-14T16:13:11.308Z,93175.67
2019-01-14T16:15:40.755Z,93175.23
2019-01-14T16:18:10.157Z,93177.50
2019-01-14T16:20:39.527Z,93183.75
2019-01-14T16:23:08.900Z,93191.94
2019-01-14T16:25:38.283Z,93191.89
2019-01-14T16:28:09.030Z,93208.25
2019-01-14T16:30:38.398Z,93204.48
2019-01-14T16:33:07.779Z,93211.77
2019-01-14T16:35:37.205Z,93206.64
2019-01-14T16:38:06.600Z,93209.66
2019-01-14T16:40:35.947Z,93204.41
2019-01-14T16:43:05.369Z,93208.42
2019-01-14T17:29:50.889Z,93230.39
2019-01-14T17:32:20.260Z,93225.79
2019-01-14T17:34:49.654Z,93233.95
2019-01-14T17:37:19.131Z,93230.41
2019-01-14T17:39:48.601Z,93230.49
2019-01-14T17:42:18.106Z,93229.58
2019-01-14T17:44:47.537Z,93239.55
2019-01-14T17:47:16.955Z,93238.35
2019-01-14T17:49:46.968Z,93244.84
2019-01-14T17:52:16.449Z,93252.81
2019-01-14T17:54:45.882Z,93251.19
2019-01-14T17:58:16.809Z,93253.77
2019-01-14T18:00:46.255Z,93255.17
2019-01-14T18:05:14.523Z,93262.79
2019-01-14T18:09:27.627Z,93266.97
2019-01-14T18:11:57.006Z,93265.00
2019-01-14T18:14:26.375Z,93253.77
2019-01-14T18:16:55.730Z,93247.06
2019-01-14T18:19:25.136Z,93242.20
2019-01-14T18:21:54.530Z,93253.84
2019-01-14T18:24:23.954Z,93257.11
2019-01-14T18:26:53.404Z,93265.41
2019-01-14T18:29:22.866Z,93263.45
2019-01-14T18:31:52.297Z,93264.77
2019-01-14T18:34:21.736Z,93262.91
2019-01-14T18:36:54.618Z,93272.53
2019-01-14T18:39:24.063Z,93279.13
2019-01-14T18:41:53.523Z,93277.55
2019-01-14T18:44:23.162Z,93285.84
2019-01-14T18:46:52.547Z,93281.84
2019-01-14T18:49:21.987Z,93284.22
2019-01-14T18:51:52.487Z,93282.61
2019-01-14T18:54:22.263Z,93287.59
2019-01-14T18:56:51.685Z,93289.53
2019-01-14T18:59:21.427Z,93293.20
2019-01-14T19:01:50.805Z,93292.71
2019-01-14T19:04:20.241Z,93299.32
2019-01-14T19:06:49.652Z,93308.56
2019-01-14T19:09:19.082Z,93312.76
2019-01-14T19:11:48.680Z,93304.32
2019-01-14T19:14:18.093Z,93310.40
2019-01-14T19:16:47.581Z,93309.84
2019-01-14T19:19:16.995Z,93311.89
2019-01-14T19:21:46.443Z,93316.27
2019-01-14T19:24:15.852Z,93316.34
2019-01-14T19:26:46.105Z,93324.36
2019-01-14T19:29:16.588Z,93327.06
2019-01-14T19:31:45.997Z,93337.95
2019-01-14T19:34:15.455Z,93339.42
2019-01-14T19:36:44.834Z,93336.61
2019-01-14T19:39:14.207Z,93324.45
2019-01-14T19:41:43.549Z,93341.73
2019-01-14T19:44:12.958Z,93320.56
2019-01-14T19:46:42.478Z,93327.97
2019-01-14T19:49:11.801Z,93329.25
2019-01-14T19:51:41.183Z,93336.79
2019-01-14T19:54:10.631Z,93339.02
2019-01-14T19:56:40.041Z,93339.83
2019-01-14T19:59:09.419Z,93337.27
2019-01-14T20:01:38.832Z,93348.43
2019-01-14T20:04:08.209Z,93354.71
2019-01-14T20:06:37.535Z,93352.59
2019-01-14T20:09:07.950Z,93363.17
2019-01-14T20:11:37.331Z,93353.89
2019-01-14T20:14:06.795Z,93364.92
2019-01-14T20:16:36.208Z,93361.73
2019-01-14T20:19:05.802Z,93367.97
2019-01-14T20:21:35.221Z,93362.66
2019-01-14T20:24:04.603Z,93359.27
2019-01-14T20:26:33.963Z,93363.59
2019-01-14T20:29:03.325Z,93360.00
2019-01-14T20:31:32.792Z,93360.00
2019-01-14T20:34:02.473Z,93363.67
2019-01-14T20:36:31.791Z,93363.01
2019-01-14T20:39:01.196Z,93363.34
2019-01-14T20:41:30.608Z,93367.78
2019-01-14T21:11:00.273Z,93397.41
2019-01-14T21:13:29.865Z,93407.34
2019-01-14T21:16:02.894Z,93394.23
2019-01-14T21:18:30.663Z,93412.48
2019-01-14T21:21:00.171Z,93400.45
2019-01-14T21:23:29.643Z,93408.09
2019-01-14T21:25:59.150Z,93417.28
2019-01-14T21:28:28.605Z,93405.70
2019-01-14T21:30:58.139Z,93419.88
2019-01-14T21:33:27.600Z,93416.83
2019-01-14T21:35:57.249Z,93418.60
2019-01-14T21:38:26.728Z,93427.52
2019-01-14T21:40:56.346Z,93408.97
2019-01-14T21:43:25.847Z,93431.80
2019-01-14T21:45:55.485Z,93422.58
2019-01-14T21:48:24.949Z,93419.83
2019-01-14T21:50:54.384Z,93405.58
2019-01-14T21:53:23.898Z,93425.65
2019-01-14T21:55:53.397Z,93417.93
2019-01-14T21:58:22.888Z,93440.89
2019-01-14T22:00:52.383Z,93436.33
2019-01-14T22:03:21.912Z,93438.36
2019-01-14T22:05:51.465Z,93441.44
2019-01-14T22:08:20.945Z,93435.00
2019-01-14T22:10:50.465Z,93438.16
2019-01-14T22:13:19.974Z,93425.72
2019-01-14T22:15:49.488Z,93423.31
2019-01-14T22:18:19.006Z,93429.02
2019-01-14T22:20:48.488Z,93422.44
2019-01-14T22:23:17.949Z,93430.59
2019-01-14T22:25:47.807Z,93428.44
2019-01-14T22:28:17.327Z,93433.81
2019-01-14T22:30:46.785Z,93441.42
2019-01-14T22:33:16.235Z,93435.32
2019-01-14T22:35:45.754Z,93461.66
2019-01-14T22:38:15.192Z,93429.39
2019-01-14T22:40:44.689Z,93475.47
2019-01-14T22:43:14.123Z,93436.80
2019-01-14T22:45:43.658Z,93447.02
2019-01-14T22:48:13.091Z,93439.95
2019-01-14T22:50:42.531Z,93457.38
2019-01-14T22:53:11.995Z,93447.02
2019-01-14T22:55:41.388Z,93425.91
2019-01-14T22:58:10.769Z,93427.12
2019-01-14T23:01:16.824Z,93434.53
2019-01-14T23:03:50.844Z,93450.06
2019-01-14T23:06:20.343Z,93436.75
2019-01-14T23:08:49.695Z,93448.89
2019-01-14T23:11:19.050Z,93436.34
2019-01-14T23:13:48.420Z,93449.44
2019-01-14T23:16:17.827Z,93461.27
2019-01-14T23:18:47.186Z,93450.45
2019-01-14T23:21:16.529Z,93464.22
2019-01-14T23:23:45.899Z,93462.89
2019-01-14T23:26:15.263Z,93465.25
2019-01-14T23:28:44.582Z,93474.78
2019-01-14T23:31:13.934Z,93460.34
2019-01-14T23:33:43.298Z,93471.48
2019-01-14T23:36:12.682Z,93476.68
2019-01-14T23:38:42.016Z,93475.20
2019-01-14T23:41:11.392Z,93483.41
2019-01-14T23:43:40.842Z,93488.91
2019-01-14T23:46:10.215Z,93477.21
2019-01-14T23:48:39.614Z,93480.98
2019-01-14T23:51:09.009Z,93487.98
2019-01-14T23:53:38.404Z,93486.61
2019-01-14T23:56:07.808Z,93493.00
2019-01-14T23:58:37.238Z,93488.72
